Chelsea, Oklahoma
Current Conditions -  °F | °C
As of 4:35 AM on Sunday 26 Oct 2014 (Local Time) from KGCM Reporting Station
Clear Clear  
Wind Chill: 61°   Ceiling: Unl
Heat Index: 61°   Visibility: 7mi
Dew Point: 59°   Wind: 5mph
Humidity: 94%   Direction: 150°SSE
Pressure: 30"   Gusts: NA
Location:  36.54°N, 95.43°W
Report Text: KGCM 260935Z AUTO 15004KT 7SM CLR 16/15 A3000 RMK AO2
Loading
Personal Weather Stations






























Interactive Weather Map
Tropical Storm Tracking
New forecast layout! Learn more

10-Day Weather Forecast

Advertisements
Track Severe Weather on mobile